Hovedside
METAR-TAF:

METAR-TAF

Lufthavner :

Florø lufthavn

Florø, Norge

breddegrad: 61-35N, lengdegrad: 005-02E, høyde over havet: 0 m

Gjeldene værobservasjon

Denne rapporten ble laget for 47 minutter siden, klokken 16:50 UTC
Vind 14 kt fra Sørvest
Temperatur 16°C
Luftfuktighet 63%
Trykk 1017 hPa
Sikt 10 km eller mer
ingen skyer under 1500 m og ingen bygeskyer

METAR: ENFL 241650Z 23014KT CAVOK 16/09 Q1017

Tid: 19:37 (17:37 UTC)

Varsel

Denne rapporten ble laget for 3 timer og 37 minutter siden, klokken 14:00 UTC
Varsel gyldig fra 24. klokken 15 UTC til 24. klokken 24 UTC
Vind 12 kt fra Sør-sørvest
Sikt 10 km eller mer
Få skyer i en høyde av 6000 ft
Blir
fra 24. klokken 22 UTC til 24. klokken 24 UTC
Vind 8 kt fra Sørøst

TAF: ENFL 241400Z 2415/2424 20012KT 9999 FEW060 BECMG 2422/2424 14008KT

Værobservasjoner og værvarsel for over 4000 flyplasser (METAR- og TAF-rapporter).

Tilgjengelige stasjoner er representert av de røde og gule prikkene på kartet.

Hold musepekeren over prikken for å se navnet på stasjonen.

Klikk så for å se værobservasjoner og -varsler.

For å forandre kartet kan du klikke på den grønne knappen med svart kryss for å zoome inn, på den grønne knappen med strek for å zoome ut, eller på de grønne pilene for å se tilstøtende kart.


METAR-TAF: